Terminal Aerodrome Forecast
Issued by NWS Jackson, MS

Home | Current Version | Previous Version | Text Only | Print | Product List | Glossary On
Versions: 1 2 3 4 5 6 7 8 9 10 11 12 13
000
FTUS44 KJAN 221120
TAFGWO
TAF
KGWO 221120Z 2212/2312 16010G20KT P6SM VCSH SCT015 OVC200
     FM221330 30020G30KT 2SM TSRA BR BKN015 OVC040CB
     FM221500 20012G18KT 4SM RA BR SCT015 BKN025 OVC070
     FM222100 29008KT P6SM VCSH BKN040 OVC100
     FM230100 34006KT P6SM BKN012 OVC020=

USA.gov is the U.S. government's official web portal to all federal, state and local government web resources and services.